sensor_id;sensor_type;location;lat;lon;timestamp;pressure;altitude;pressure_sealevel;temperature;humidity
76137;BME280;68622;53.128;17.966;2023-04-15T00:01:25;100473.65;;;10.09;62.59
76137;BME280;68622;53.128;17.966;2023-04-15T00:03:52;100477.51;;;10.07;62.89
76137;BME280;68622;53.128;17.966;2023-04-15T00:06:22;100475.91;;;10.06;62.98
76137;BME280;68622;53.128;17.966;2023-04-15T00:08:48;100476.38;;;10.06;62.51
76137;BME280;68622;53.128;17.966;2023-04-15T00:11:16;100479.26;;;10.05;62.48
76137;BME280;68622;53.128;17.966;2023-04-15T00:13:43;100477.91;;;10.03;62.57
76137;BME280;68622;53.128;17.966;2023-04-15T00:16:09;100481.55;;;9.99;62.53
76137;BME280;68622;53.128;17.966;2023-04-15T00:18:36;100476.71;;;9.95;63.10
76137;BME280;68622;53.128;17.966;2023-04-15T00:21:03;100474.09;;;9.91;62.73
76137;BME280;68622;53.128;17.966;2023-04-15T00:23:30;100469.14;;;9.86;63.14
76137;BME280;68622;53.128;17.966;2023-04-15T00:25:56;100469.73;;;9.85;63.02
76137;BME280;68622;53.128;17.966;2023-04-15T00:28:22;100467.18;;;9.85;63.48
76137;BME280;68622;53.128;17.966;2023-04-15T00:30:48;100462.17;;;9.85;63.62
76137;BME280;68622;53.128;17.966;2023-04-15T00:33:14;100466.81;;;9.83;63.73
76137;BME280;68622;53.128;17.966;2023-04-15T00:35:41;100463.36;;;9.81;63.44
76137;BME280;68622;53.128;17.966;2023-04-15T00:38:08;100463.79;;;9.76;64.13
76137;BME280;68622;53.128;17.966;2023-04-15T00:40:34;100466.23;;;9.74;63.73
76137;BME280;68622;53.128;17.966;2023-04-15T00:43:00;100466.60;;;9.72;63.66
76137;BME280;68622;53.128;17.966;2023-04-15T00:45:27;100467.16;;;9.68;63.90
76137;BME280;68622;53.128;17.966;2023-04-15T00:47:54;100470.73;;;9.65;63.97
76137;BME280;68622;53.128;17.966;2023-04-15T00:50:20;100467.68;;;9.62;64.22
76137;BME280;68622;53.128;17.966;2023-04-15T00:52:47;100466.95;;;9.61;63.84
76137;BME280;68622;53.128;17.966;2023-04-15T00:58:36;100469.91;;;9.62;64.87
76137;BME280;68622;53.128;17.966;2023-04-15T01:01:03;100467.93;;;9.62;65.04
76137;BME280;68622;53.128;17.966;2023-04-15T01:03:29;100464.32;;;9.61;65.21
76137;BME280;68622;53.128;17.966;2023-04-15T01:05:55;100466.42;;;9.61;64.88
76137;BME280;68622;53.128;17.966;2023-04-15T01:08:27;100469.11;;;9.62;64.62
76137;BME280;68622;53.128;17.966;2023-04-15T01:10:57;100468.30;;;9.63;64.46
76137;BME280;68622;53.128;17.966;2023-04-15T01:13:26;100468.36;;;9.62;64.51
76137;BME280;68622;53.128;17.966;2023-04-15T01:15:52;100468.79;;;9.63;64.93
76137;BME280;68622;53.128;17.966;2023-04-15T01:18:21;100469.17;;;9.65;65.16
76137;BME280;68622;53.128;17.966;2023-04-15T01:20:48;100470.44;;;9.66;65.40
76137;BME280;68622;53.128;17.966;2023-04-15T01:23:14;100472.39;;;9.67;65.12
76137;BME280;68622;53.128;17.966;2023-04-15T01:25:42;100473.00;;;9.69;65.08
76137;BME280;68622;53.128;17.966;2023-04-15T01:28:08;100469.30;;;9.71;64.76
76137;BME280;68622;53.128;17.966;2023-04-15T01:30:35;100465.89;;;9.72;65.37
76137;BME280;68622;53.128;17.966;2023-04-15T01:33:01;100465.55;;;9.74;64.53
76137;BME280;68622;53.128;17.966;2023-04-15T01:35:27;100466.76;;;9.74;64.46
76137;BME280;68622;53.128;17.966;2023-04-15T01:37:55;100469.33;;;9.77;64.43
76137;BME280;68622;53.128;17.966;2023-04-15T01:40:25;100466.19;;;9.79;64.71
76137;BME280;68622;53.128;17.966;2023-04-15T01:42:51;100463.85;;;9.79;64.86
76137;BME280;68622;53.128;17.966;2023-04-15T01:45:17;100462.91;;;9.79;65.02
76137;BME280;68622;53.128;17.966;2023-04-15T01:47:43;100462.71;;;9.77;65.00
76137;BME280;68622;53.128;17.966;2023-04-15T01:50:09;100464.54;;;9.76;64.71
76137;BME280;68622;53.128;17.966;2023-04-15T01:52:35;100464.20;;;9.72;65.09
76137;BME280;68622;53.128;17.966;2023-04-15T01:55:01;100464.76;;;9.70;65.30
76137;BME280;68622;53.128;17.966;2023-04-15T01:57:27;100463.44;;;9.67;65.14
76137;BME280;68622;53.128;17.966;2023-04-15T01:59:53;100460.48;;;9.65;64.87
76137;BME280;68622;53.128;17.966;2023-04-15T02:02:20;100462.52;;;9.62;65.55
76137;BME280;68622;53.128;17.966;2023-04-15T02:04:46;100456.23;;;9.61;65.37
76137;BME280;68622;53.128;17.966;2023-04-15T02:07:12;100462.52;;;9.62;65.43
76137;BME280;68622;53.128;17.966;2023-04-15T02:09:38;100461.52;;;9.62;65.32
76137;BME280;68622;53.128;17.966;2023-04-15T02:12:08;100461.73;;;9.63;65.49
76137;BME280;68622;53.128;17.966;2023-04-15T02:14:34;100466.13;;;9.64;65.26
76137;BME280;68622;53.128;17.966;2023-04-15T02:17:00;100467.84;;;9.64;65.08
76137;BME280;68622;53.128;17.966;2023-04-15T02:19:32;100463.20;;;9.64;64.78
76137;BME280;68622;53.128;17.966;2023-04-15T02:21:58;100468.16;;;9.65;64.74
76137;BME280;68622;53.128;17.966;2023-04-15T02:24:27;100462.91;;;9.65;65.21
76137;BME280;68622;53.128;17.966;2023-04-15T02:26:53;100467.09;;;9.69;65.10
76137;BME280;68622;53.128;17.966;2023-04-15T02:29:21;100462.23;;;9.73;65.00
76137;BME280;68622;53.128;17.966;2023-04-15T02:31:48;100462.50;;;9.78;65.23
76137;BME280;68622;53.128;17.966;2023-04-15T02:34:14;100467.80;;;9.80;65.84
76137;BME280;68622;53.128;17.966;2023-04-15T02:36:43;100463.31;;;9.87;65.27
76137;BME280;68622;53.128;17.966;2023-04-15T02:39:09;100467.52;;;9.95;65.03
76137;BME280;68622;53.128;17.966;2023-04-15T02:41:35;100467.80;;;10.02;64.85
76137;BME280;68622;53.128;17.966;2023-04-15T02:44:02;100465.77;;;10.05;64.96
76137;BME280;68622;53.128;17.966;2023-04-15T02:46:28;100465.18;;;10.09;64.68
76137;BME280;68622;53.128;17.966;2023-04-15T02:48:54;100467.24;;;10.15;64.65
76137;BME280;68622;53.128;17.966;2023-04-15T02:51:21;100467.43;;;10.21;64.53
76137;BME280;68622;53.128;17.966;2023-04-15T02:53:48;100462.51;;;10.25;64.65
76137;BME280;68622;53.128;17.966;2023-04-15T02:56:14;100466.27;;;10.30;64.78
76137;BME280;68622;53.128;17.966;2023-04-15T02:58:43;100466.16;;;10.33;64.47
76137;BME280;68622;53.128;17.966;2023-04-15T03:01:10;100464.44;;;10.35;64.44
76137;BME280;68622;53.128;17.966;2023-04-15T03:03:37;100462.80;;;10.36;64.23
76137;BME280;68622;53.128;17.966;2023-04-15T03:06:03;100465.22;;;10.38;64.23
76137;BME280;68622;53.128;17.966;2023-04-15T03:08:29;100465.55;;;10.38;64.16
76137;BME280;68622;53.128;17.966;2023-04-15T03:10:57;100469.52;;;10.38;63.99
76137;BME280;68622;53.128;17.966;2023-04-15T03:13:25;100464.88;;;10.41;64.21
76137;BME280;68622;53.128;17.966;2023-04-15T03:15:52;100465.14;;;10.44;64.07
76137;BME280;68622;53.128;17.966;2023-04-15T03:18:19;100467.83;;;10.49;64.13
76137;BME280;68622;53.128;17.966;2023-04-15T03:20:44;100465.72;;;10.51;64.20
76137;BME280;68622;53.128;17.966;2023-04-15T03:23:11;100466.55;;;10.55;64.16
76137;BME280;68622;53.128;17.966;2023-04-15T03:25:38;100470.18;;;10.57;64.06
76137;BME280;68622;53.128;17.966;2023-04-15T03:28:05;100469.97;;;10.57;63.78
76137;BME280;68622;53.128;17.966;2023-04-15T03:30:32;100472.90;;;10.59;63.77
76137;BME280;68622;53.128;17.966;2023-04-15T03:32:57;100466.38;;;10.57;63.87
76137;BME280;68622;53.128;17.966;2023-04-15T03:35:24;100469.20;;;10.56;63.91
76137;BME280;68622;53.128;17.966;2023-04-15T03:37:50;100468.65;;;10.57;63.81
76137;BME280;68622;53.128;17.966;2023-04-15T03:40:16;100469.09;;;10.57;63.88
76137;BME280;68622;53.128;17.966;2023-04-15T03:42:42;100468.30;;;10.61;63.76
76137;BME280;68622;53.128;17.966;2023-04-15T03:45:08;100467.94;;;10.62;63.73
76137;BME280;68622;53.128;17.966;2023-04-15T03:47:34;100469.59;;;10.63;63.88
76137;BME280;68622;53.128;17.966;2023-04-15T03:50:00;100470.34;;;10.63;63.81
76137;BME280;68622;53.128;17.966;2023-04-15T03:52:26;100465.85;;;10.63;63.65
76137;BME280;68622;53.128;17.966;2023-04-15T03:54:52;100468.90;;;10.63;63.66
76137;BME280;68622;53.128;17.966;2023-04-15T03:57:18;100468.10;;;10.64;63.44
76137;BME280;68622;53.128;17.966;2023-04-15T03:59:44;100471.67;;;10.65;63.36
76137;BME280;68622;53.128;17.966;2023-04-15T04:02:09;100471.45;;;10.68;63.49
76137;BME280;68622;53.128;17.966;2023-04-15T04:04:35;100477.05;;;10.71;63.50
76137;BME280;68622;53.128;17.966;2023-04-15T04:07:01;100480.82;;;10.73;63.75
76137;BME280;68622;53.128;17.966;2023-04-15T04:09:27;100479.20;;;10.74;63.70
76137;BME280;68622;53.128;17.966;2023-04-15T04:11:53;100480.95;;;10.76;63.61
76137;BME280;68622;53.128;17.966;2023-04-15T04:14:19;100477.09;;;10.76;63.53
76137;BME280;68622;53.128;17.966;2023-04-15T04:16:45;100478.88;;;10.78;63.46
76137;BME280;68622;53.128;17.966;2023-04-15T04:19:12;100481.86;;;10.79;63.22
76137;BME280;68622;53.128;17.966;2023-04-15T04:21:39;100479.42;;;10.77;63.37
76137;BME280;68622;53.128;17.966;2023-04-15T04:24:05;100481.95;;;10.76;63.47
76137;BME280;68622;53.128;17.966;2023-04-15T04:26:31;100479.97;;;10.79;63.38
76137;BME280;68622;53.128;17.966;2023-04-15T04:28:57;100476.85;;;10.80;63.45
76137;BME280;68622;53.128;17.966;2023-04-15T04:31:22;100483.95;;;10.81;63.72
76137;BME280;68622;53.128;17.966;2023-04-15T04:33:48;100477.67;;;10.83;63.61
76137;BME280;68622;53.128;17.966;2023-04-15T04:36:14;100480.71;;;10.86;63.55
76137;BME280;68622;53.128;17.966;2023-04-15T04:38:40;100477.23;;;10.86;63.69
76137;BME280;68622;53.128;17.966;2023-04-15T04:41:06;100478.11;;;10.89;63.46
76137;BME280;68622;53.128;17.966;2023-04-15T04:43:32;100478.33;;;10.91;63.15
76137;BME280;68622;53.128;17.966;2023-04-15T04:45:58;100478.27;;;10.88;63.19
76137;BME280;68622;53.128;17.966;2023-04-15T04:48:23;100478.59;;;10.88;63.10
76137;BME280;68622;53.128;17.966;2023-04-15T04:50:49;100477.59;;;10.91;63.15
76137;BME280;68622;53.128;17.966;2023-04-15T04:53:16;100479.76;;;10.92;63.08
76137;BME280;68622;53.128;17.966;2023-04-15T04:55:42;100478.41;;;10.94;63.24
76137;BME280;68622;53.128;17.966;2023-04-15T04:58:08;100477.46;;;10.96;63.26
76137;BME280;68622;53.128;17.966;2023-04-15T05:00:34;100474.92;;;10.97;63.33
76137;BME280;68622;53.128;17.966;2023-04-15T05:03:00;100479.30;;;10.99;63.41
76137;BME280;68622;53.128;17.966;2023-04-15T05:05:26;100477.91;;;11.01;63.25
76137;BME280;68622;53.128;17.966;2023-04-15T05:07:52;100483.25;;;11.03;63.12
76137;BME280;68622;53.128;17.966;2023-04-15T05:10:18;100480.92;;;11.02;63.13
76137;BME280;68622;53.128;17.966;2023-04-15T05:12:43;100482.77;;;11.05;62.96
76137;BME280;68622;53.128;17.966;2023-04-15T05:15:09;100483.48;;;11.04;62.99
76137;BME280;68622;53.128;17.966;2023-04-15T05:17:36;100482.73;;;11.03;62.92
76137;BME280;68622;53.128;17.966;2023-04-15T05:20:02;100483.20;;;11.04;62.99
76137;BME280;68622;53.128;17.966;2023-04-15T05:22:28;100481.84;;;11.05;63.08
76137;BME280;68622;53.128;17.966;2023-04-15T05:24:54;100481.66;;;11.07;63.18
76137;BME280;68622;53.128;17.966;2023-04-15T05:27:20;100485.30;;;11.09;63.25
76137;BME280;68622;53.128;17.966;2023-04-15T05:29:47;100487.34;;;11.10;63.33
76137;BME280;68622;53.128;17.966;2023-04-15T05:32:13;100485.46;;;11.11;63.12
76137;BME280;68622;53.128;17.966;2023-04-15T05:34:39;100489.41;;;11.12;63.07
76137;BME280;68622;53.128;17.966;2023-04-15T05:37:05;100490.12;;;11.09;62.98
76137;BME280;68622;53.128;17.966;2023-04-15T05:39:30;100493.02;;;11.10;62.90
76137;BME280;68622;53.128;17.966;2023-04-15T05:41:57;100493.08;;;11.09;62.88
76137;BME280;68622;53.128;17.966;2023-04-15T05:44:23;100495.79;;;11.10;62.83
76137;BME280;68622;53.128;17.966;2023-04-15T05:46:49;100496.84;;;11.10;62.74
76137;BME280;68622;53.128;17.966;2023-04-15T05:49:15;100495.66;;;11.10;62.96
76137;BME280;68622;53.128;17.966;2023-04-15T05:51:40;100500.70;;;11.08;63.44
76137;BME280;68622;53.128;17.966;2023-04-15T05:54:06;100495.08;;;11.08;63.54
76137;BME280;68622;53.128;17.966;2023-04-15T05:56:32;100498.37;;;11.10;63.59
76137;BME280;68622;53.128;17.966;2023-04-15T05:58:58;100498.61;;;11.11;63.52
76137;BME280;68622;53.128;17.966;2023-04-15T06:01:24;100504.91;;;11.13;63.49
76137;BME280;68622;53.128;17.966;2023-04-15T06:03:50;100504.29;;;11.12;63.33
76137;BME280;68622;53.128;17.966;2023-04-15T06:06:16;100508.59;;;11.10;63.65
76137;BME280;68622;53.128;17.966;2023-04-15T06:08:42;100510.52;;;11.07;63.98
76137;BME280;68622;53.128;17.966;2023-04-15T06:11:08;100512.77;;;11.07;63.62
76137;BME280;68622;53.128;17.966;2023-04-15T06:13:34;100517.23;;;11.07;63.73
76137;BME280;68622;53.128;17.966;2023-04-15T06:16:00;100516.29;;;11.04;64.40
76137;BME280;68622;53.128;17.966;2023-04-15T06:18:26;100519.42;;;11.06;64.59
76137;BME280;68622;53.128;17.966;2023-04-15T06:20:52;100518.34;;;11.05;64.93
76137;BME280;68622;53.128;17.966;2023-04-15T06:23:17;100525.40;;;11.03;65.05
76137;BME280;68622;53.128;17.966;2023-04-15T06:25:43;100529.86;;;11.04;65.17
76137;BME280;68622;53.128;17.966;2023-04-15T06:28:09;100533.90;;;11.00;66.05
76137;BME280;68622;53.128;17.966;2023-04-15T06:30:35;100533.02;;;10.96;66.22
76137;BME280;68622;53.128;17.966;2023-04-15T06:33:01;100534.66;;;10.93;66.33
76137;BME280;68622;53.128;17.966;2023-04-15T06:35:30;100532.73;;;10.92;66.38
76137;BME280;68622;53.128;17.966;2023-04-15T06:37:56;100536.38;;;10.88;67.75
76137;BME280;68622;53.128;17.966;2023-04-15T06:40:22;100534.96;;;10.84;66.99
76137;BME280;68622;53.128;17.966;2023-04-15T06:42:47;100532.80;;;10.82;67.76
76137;BME280;68622;53.128;17.966;2023-04-15T06:45:14;100535.15;;;10.79;67.52
76137;BME280;68622;53.128;17.966;2023-04-15T06:47:40;100534.41;;;10.81;67.22
76137;BME280;68622;53.128;17.966;2023-04-15T06:50:06;100537.54;;;10.81;68.06
76137;BME280;68622;53.128;17.966;2023-04-15T06:52:34;100541.89;;;10.81;67.99
76137;BME280;68622;53.128;17.966;2023-04-15T06:55:00;100545.23;;;10.80;69.17
76137;BME280;68622;53.128;17.966;2023-04-15T06:57:27;100548.05;;;10.78;68.89
76137;BME280;68622;53.128;17.966;2023-04-15T06:59:54;100550.67;;;10.76;68.50
76137;BME280;68622;53.128;17.966;2023-04-15T07:02:21;100552.27;;;10.78;68.45
76137;BME280;68622;53.128;17.966;2023-04-15T07:04:47;100551.83;;;10.79;68.41
76137;BME280;68622;53.128;17.966;2023-04-15T07:07:13;100555.31;;;10.80;68.42
76137;BME280;68622;53.128;17.966;2023-04-15T07:09:40;100553.80;;;10.81;68.94
76137;BME280;68622;53.128;17.966;2023-04-15T07:12:06;100560.98;;;10.83;68.60
76137;BME280;68622;53.128;17.966;2023-04-15T07:14:32;100561.45;;;10.83;68.81
76137;BME280;68622;53.128;17.966;2023-04-15T07:16:58;100563.12;;;10.77;69.35
76137;BME280;68622;53.128;17.966;2023-04-15T07:19:23;100564.84;;;10.77;68.99
76137;BME280;68622;53.128;17.966;2023-04-15T07:21:49;100563.79;;;10.75;69.02
76137;BME280;68622;53.128;17.966;2023-04-15T07:24:16;100565.19;;;10.75;69.16
76137;BME280;68622;53.128;17.966;2023-04-15T07:26:43;100569.23;;;10.76;68.78
76137;BME280;68622;53.128;17.966;2023-04-15T07:29:09;100569.98;;;10.79;68.87
76137;BME280;68622;53.128;17.966;2023-04-15T07:31:36;100567.95;;;10.81;69.00
76137;BME280;68622;53.128;17.966;2023-04-15T07:34:06;100573.29;;;10.77;70.34
76137;BME280;68622;53.128;17.966;2023-04-15T07:36:31;100572.02;;;10.76;70.25
76137;BME280;68622;53.128;17.966;2023-04-15T07:38:57;100570.13;;;10.78;69.47
76137;BME280;68622;53.128;17.966;2023-04-15T07:41:23;100572.60;;;10.79;69.35
76137;BME280;68622;53.128;17.966;2023-04-15T07:43:50;100572.86;;;10.74;70.21
76137;BME280;68622;53.128;17.966;2023-04-15T07:46:16;100575.90;;;10.77;69.61
76137;BME280;68622;53.128;17.966;2023-04-15T07:48:42;100577.77;;;10.81;69.69
76137;BME280;68622;53.128;17.966;2023-04-15T07:51:08;100585.13;;;10.85;69.76
76137;BME280;68622;53.128;17.966;2023-04-15T07:53:35;100583.20;;;10.85;70.15
76137;BME280;68622;53.128;17.966;2023-04-15T07:56:01;100580.98;;;10.84;70.63
76137;BME280;68622;53.128;17.966;2023-04-15T07:58:27;100581.37;;;10.84;70.10
76137;BME280;68622;53.128;17.966;2023-04-15T08:00:53;100580.98;;;10.82;70.34
76137;BME280;68622;53.128;17.966;2023-04-15T08:03:21;100583.95;;;10.84;69.91
76137;BME280;68622;53.128;17.966;2023-04-15T08:05:47;100588.64;;;10.86;69.98
76137;BME280;68622;53.128;17.966;2023-04-15T08:08:13;100587.78;;;10.84;70.71
76137;BME280;68622;53.128;17.966;2023-04-15T08:10:39;100585.98;;;10.86;70.19
76137;BME280;68622;53.128;17.966;2023-04-15T08:13:05;100588.34;;;10.89;69.95
76137;BME280;68622;53.128;17.966;2023-04-15T08:15:31;100590.23;;;10.93;70.35
76137;BME280;68622;53.128;17.966;2023-04-15T08:17:57;100593.00;;;11.00;70.29
76137;BME280;68622;53.128;17.966;2023-04-15T08:20:25;100591.46;;;11.08;70.46
76137;BME280;68622;53.128;17.966;2023-04-15T08:22:51;100592.33;;;11.15;70.07
76137;BME280;68622;53.128;17.966;2023-04-15T08:25:18;100590.36;;;11.18;70.21
76137;BME280;68622;53.128;17.966;2023-04-15T08:27:47;100596.14;;;11.19;69.92
76137;BME280;68622;53.128;17.966;2023-04-15T08:30:13;100593.37;;;11.21;69.55
76137;BME280;68622;53.128;17.966;2023-04-15T08:32:41;100595.36;;;11.22;69.64
76137;BME280;68622;53.128;17.966;2023-04-15T08:35:11;100597.29;;;11.23;69.69
76137;BME280;68622;53.128;17.966;2023-04-15T08:37:37;100596.01;;;11.24;69.58
76137;BME280;68622;53.128;17.966;2023-04-15T08:40:03;100597.09;;;11.29;69.52
76137;BME280;68622;53.128;17.966;2023-04-15T08:42:30;100597.48;;;11.34;69.70
76137;BME280;68622;53.128;17.966;2023-04-15T08:44:59;100596.95;;;11.38;69.58
76137;BME280;68622;53.128;17.966;2023-04-15T08:47:29;100599.95;;;11.39;69.42
76137;BME280;68622;53.128;17.966;2023-04-15T08:49:57;100604.26;;;11.40;69.24
76137;BME280;68622;53.128;17.966;2023-04-15T08:52:25;100602.36;;;11.38;69.16
76137;BME280;68622;53.128;17.966;2023-04-15T08:54:55;100602.17;;;11.44;69.16
76137;BME280;68622;53.128;17.966;2023-04-15T08:57:25;100603.71;;;11.48;69.21
76137;BME280;68622;53.128;17.966;2023-04-15T08:59:54;100603.16;;;11.48;69.52
76137;BME280;68622;53.128;17.966;2023-04-15T09:02:20;100602.14;;;11.46;69.41
76137;BME280;68622;53.128;17.966;2023-04-15T09:04:47;100604.71;;;11.45;69.42
76137;BME280;68622;53.128;17.966;2023-04-15T09:07:13;100604.05;;;11.46;69.29
76137;BME280;68622;53.128;17.966;2023-04-15T09:09:39;100605.15;;;11.47;69.21
76137;BME280;68622;53.128;17.966;2023-04-15T09:12:08;100611.63;;;11.51;69.48
76137;BME280;68622;53.128;17.966;2023-04-15T09:14:34;100607.95;;;11.53;69.09
76137;BME280;68622;53.128;17.966;2023-04-15T09:17:01;100608.84;;;11.56;69.12
76137;BME280;68622;53.128;17.966;2023-04-15T09:19:28;100609.53;;;11.62;69.20
76137;BME280;68622;53.128;17.966;2023-04-15T09:21:56;100611.10;;;11.63;69.16
76137;BME280;68622;53.128;17.966;2023-04-15T09:24:23;100608.52;;;11.61;69.07
76137;BME280;68622;53.128;17.966;2023-04-15T09:26:53;100608.85;;;11.61;68.80
76137;BME280;68622;53.128;17.966;2023-04-15T09:29:24;100606.01;;;11.62;68.82
76137;BME280;68622;53.128;17.966;2023-04-15T09:31:51;100601.38;;;11.67;68.68
76137;BME280;68622;53.128;17.966;2023-04-15T09:34:18;100604.03;;;11.73;69.02
76137;BME280;68622;53.128;17.966;2023-04-15T09:39:15;100602.60;;;11.91;68.80
76137;BME280;68622;53.128;17.966;2023-04-15T09:41:40;100601.48;;;11.99;68.72
76137;BME280;68622;53.128;17.966;2023-04-15T09:44:25;100605.27;;;12.08;68.16
76137;BME280;68622;53.128;17.966;2023-04-15T09:46:51;100602.64;;;12.12;67.89
76137;BME280;68622;53.128;17.966;2023-04-15T09:49:17;100608.60;;;12.16;67.70
76137;BME280;68622;53.128;17.966;2023-04-15T09:51:43;100611.56;;;12.26;67.76
76137;BME280;68622;53.128;17.966;2023-04-15T09:54:08;100607.95;;;12.29;68.10
76137;BME280;68622;53.128;17.966;2023-04-15T09:56:36;100604.61;;;12.34;67.94
76137;BME280;68622;53.128;17.966;2023-04-15T09:59:07;100613.52;;;12.32;67.74
76137;BME280;68622;53.128;17.966;2023-04-15T10:01:33;100611.23;;;12.29;67.85
76137;BME280;68622;53.128;17.966;2023-04-15T10:04:02;100609.67;;;12.33;67.65
76137;BME280;68622;53.128;17.966;2023-04-15T10:06:29;100607.02;;;12.40;67.43
76137;BME280;68622;53.128;17.966;2023-04-15T10:08:57;100609.46;;;12.49;66.97
76137;BME280;68622;53.128;17.966;2023-04-15T10:11:26;100610.91;;;12.62;67.01
76137;BME280;68622;53.128;17.966;2023-04-15T10:13:53;100608.85;;;12.73;66.59
76137;BME280;68622;53.128;17.966;2023-04-15T10:16:22;100610.80;;;12.83;66.33
76137;BME280;68622;53.128;17.966;2023-04-15T10:18:56;100610.19;;;12.90;66.33
76137;BME280;68622;53.128;17.966;2023-04-15T10:21:22;100604.80;;;13.03;66.37
76137;BME280;68622;53.128;17.966;2023-04-15T10:23:49;100612.55;;;13.07;66.14
76137;BME280;68622;53.128;17.966;2023-04-15T10:26:16;100611.18;;;13.10;66.15
76137;BME280;68622;53.128;17.966;2023-04-15T10:28:43;100612.83;;;13.08;66.21
76137;BME280;68622;53.128;17.966;2023-04-15T10:31:12;100613.20;;;13.04;66.25
76137;BME280;68622;53.128;17.966;2023-04-15T10:33:43;100618.98;;;12.93;66.13
76137;BME280;68622;53.128;17.966;2023-04-15T10:36:10;100615.30;;;12.83;66.06
76137;BME280;68622;53.128;17.966;2023-04-15T10:41:18;100619.96;;;12.62;66.12
76137;BME280;68622;53.128;17.966;2023-04-15T10:43:55;100621.35;;;12.53;66.40
76137;BME280;68622;53.128;17.966;2023-04-15T10:46:33;100620.80;;;12.52;66.22
76137;BME280;68622;53.128;17.966;2023-04-15T10:49:11;100620.11;;;12.50;66.44
76137;BME280;68622;53.128;17.966;2023-04-15T10:51:40;100626.55;;;12.43;66.66
76137;BME280;68622;53.128;17.966;2023-04-15T10:54:14;100627.05;;;12.40;66.89
76137;BME280;68622;53.128;17.966;2023-04-15T10:56:44;100624.84;;;12.43;66.88
76137;BME280;68622;53.128;17.966;2023-04-15T10:59:10;100621.84;;;12.50;67.13
76137;BME280;68622;53.128;17.966;2023-04-15T11:01:50;100622.55;;;12.64;66.77
76137;BME280;68622;53.128;17.966;2023-04-15T11:04:55;100630.11;;;12.71;66.34
76137;BME280;68622;53.128;17.966;2023-04-15T11:07:46;100629.31;;;12.85;66.17
76137;BME280;68622;53.128;17.966;2023-04-15T11:12:43;100632.52;;;13.16;66.30
76137;BME280;68622;53.128;17.966;2023-04-15T11:17:50;100634.79;;;13.11;65.84
76137;BME280;68622;53.128;17.966;2023-04-15T11:20:17;100633.11;;;13.05;66.06
76137;BME280;68622;53.128;17.966;2023-04-15T11:22:50;100636.30;;;12.96;65.89
76137;BME280;68622;53.128;17.966;2023-04-15T11:25:28;100634.30;;;12.84;66.59
76137;BME280;68622;53.128;17.966;2023-04-15T11:27:55;100641.15;;;12.83;66.59
76137;BME280;68622;53.128;17.966;2023-04-15T11:30:26;100641.60;;;12.81;66.69
76137;BME280;68622;53.128;17.966;2023-04-15T11:32:56;100640.38;;;12.74;66.45
76137;BME280;68622;53.128;17.966;2023-04-15T11:35:23;100640.69;;;12.73;66.57
76137;BME280;68622;53.128;17.966;2023-04-15T11:37:49;100646.13;;;12.63;67.10
76137;BME280;68622;53.128;17.966;2023-04-15T11:40:25;100644.07;;;12.61;67.00
76137;BME280;68622;53.128;17.966;2023-04-15T11:43:11;100651.70;;;12.53;67.02
76137;BME280;68622;53.128;17.966;2023-04-15T11:48:13;100649.19;;;12.36;67.14
76137;BME280;68622;53.128;17.966;2023-04-15T11:50:39;100651.70;;;12.33;67.83
76137;BME280;68622;53.128;17.966;2023-04-15T11:53:08;100652.42;;;12.33;67.43
76137;BME280;68622;53.128;17.966;2023-04-15T11:55:48;100653.74;;;12.39;67.39
76137;BME280;68622;53.128;17.966;2023-04-15T11:58:17;100654.73;;;12.46;67.49
76137;BME280;68622;53.128;17.966;2023-04-15T12:00:59;100656.15;;;12.52;67.62
76137;BME280;68622;53.128;17.966;2023-04-15T12:16:23;100666.06;;;12.52;67.64
76137;BME280;68622;53.128;17.966;2023-04-15T12:18:51;100668.55;;;12.55;67.35
76137;BME280;68622;53.128;17.966;2023-04-15T12:21:19;100666.82;;;12.57;67.14
76137;BME280;68622;53.128;17.966;2023-04-15T12:23:55;100669.55;;;12.55;67.12
76137;BME280;68622;53.128;17.966;2023-04-15T12:26:30;100668.02;;;12.57;67.20
76137;BME280;68622;53.128;17.966;2023-04-15T12:29:01;100671.84;;;12.57;67.12
76137;BME280;68622;53.128;17.966;2023-04-15T12:31:28;100671.12;;;12.62;67.26
76137;BME280;68622;53.128;17.966;2023-04-15T12:33:55;100671.55;;;12.56;67.34
76137;BME280;68622;53.128;17.966;2023-04-15T12:36:21;100675.73;;;12.60;67.11
76137;BME280;68622;53.128;17.966;2023-04-15T12:38:48;100677.95;;;12.65;67.06
76137;BME280;68622;53.128;17.966;2023-04-15T12:41:14;100676.27;;;12.68;66.91
76137;BME280;68622;53.128;17.966;2023-04-15T12:43:43;100675.68;;;12.71;66.96
76137;BME280;68622;53.128;17.966;2023-04-15T12:46:09;100676.36;;;12.71;66.99
76137;BME280;68622;53.128;17.966;2023-04-15T12:48:35;100684.16;;;12.71;66.95
76137;BME280;68622;53.128;17.966;2023-04-15T12:51:01;100677.84;;;12.65;66.92
76137;BME280;68622;53.128;17.966;2023-04-15T12:53:27;100683.03;;;12.62;67.08
76137;BME280;68622;53.128;17.966;2023-04-15T12:55:53;100683.75;;;12.61;66.88
76137;BME280;68622;53.128;17.966;2023-04-15T12:58:20;100685.95;;;12.55;67.34
76137;BME280;68622;53.128;17.966;2023-04-15T13:00:46;100681.83;;;12.49;68.07
76137;BME280;68622;53.128;17.966;2023-04-15T13:03:12;100682.73;;;12.50;68.04
76137;BME280;68622;53.128;17.966;2023-04-15T13:05:38;100686.11;;;12.60;67.83
76137;BME280;68622;53.128;17.966;2023-04-15T13:08:05;100686.91;;;12.68;67.67
76137;BME280;68622;53.128;17.966;2023-04-15T13:10:31;100687.39;;;12.72;67.59
76137;BME280;68622;53.128;17.966;2023-04-15T13:12:57;100684.85;;;12.77;67.50